Time;durP1;ratioP1;P1;durP2;ratioP2;P2;SDS_P1;SDS_P2;PMS_P1;PMS_P2;Temp;Humidity;BMP_temperature;BMP_pressure;BME280_temperature;BME280_humidity;BME280_pressure;Samples;Min_cycle;Max_cycle;Signal;HPM_P1;HPM_P2
2022/12/03 00:01:37;;;;;;;10.55;2.08;;;;;;;;;;4893262;29;20055;-75
2022/12/03 00:04:07;;;;;;;7.53;2.40;;;;;;;;;;4893244;29;20053;-74
2022/12/03 00:06:37;;;;;;;6.25;2.05;;;;;;;;;;4892590;29;20048;-74
2022/12/03 00:09:11;;;;;;;5.22;1.98;;;;;;;;;;4896955;29;20044;-71
2022/12/03 00:11:41;;;;;;;8.00;2.30;;;;;;;;;;4898599;29;20056;-73
2022/12/03 00:14:11;;;;;;;9.77;2.28;;;;;;;;;;4898341;29;20503;-75
2022/12/03 00:16:40;;;;;;;7.60;2.42;;;;;;;;;;4893470;29;20045;-74
2022/12/03 00:19:10;;;;;;;9.55;2.50;;;;;;;;;;4892624;29;20059;-74
2022/12/03 00:21:40;;;;;;;11.25;2.40;;;;;;;;;;4893161;29;20053;-75
2022/12/03 00:24:10;;;;;;;8.32;2.17;;;;;;;;;;4892700;29;20045;-75
2022/12/03 00:26:39;;;;;;;9.40;2.50;;;;;;;;;;4893208;29;20045;-74
2022/12/03 00:29:10;;;;;;;6.93;2.43;;;;;;;;;;4814998;29;2288526;-76
2022/12/03 00:31:40;;;;;;;11.40;2.60;;;;;;;;;;4893472;29;20052;-77
2022/12/03 00:34:11;;;;;;;10.40;2.60;;;;;;;;;;4895292;29;20045;-72
2022/12/03 00:36:41;;;;;;;8.77;2.63;;;;;;;;;;4877474;29;20432;-74
2022/12/03 00:39:11;;;;;;;10.38;2.50;;;;;;;;;;4893471;29;20056;-74
2022/12/03 00:41:41;;;;;;;8.18;2.83;;;;;;;;;;4893082;29;20067;-75
2022/12/03 00:44:11;;;;;;;11.45;2.65;;;;;;;;;;4893321;29;20060;-77
2022/12/03 00:46:41;;;;;;;9.18;2.70;;;;;;;;;;4893547;29;20051;-74
2022/12/03 00:49:10;;;;;;;6.85;2.80;;;;;;;;;;4893667;29;20512;-76
2022/12/03 00:51:40;;;;;;;10.18;3.05;;;;;;;;;;4893626;29;20052;-74
2022/12/03 00:54:10;;;;;;;12.27;3.50;;;;;;;;;;4893844;29;20067;-73
2022/12/03 00:56:40;;;;;;;11.30;3.45;;;;;;;;;;4891795;29;20059;-76
2022/12/03 00:59:10;;;;;;;13.18;3.65;;;;;;;;;;4893259;29;20049;-74
2022/12/03 01:01:40;;;;;;;8.32;2.85;;;;;;;;;;4894237;29;20052;-74
2022/12/03 01:04:10;;;;;;;9.48;3.85;;;;;;;;;;4892501;29;20060;-77
2022/12/03 01:06:40;;;;;;;10.18;3.40;;;;;;;;;;4893168;29;20048;-74
2022/12/03 01:09:10;;;;;;;11.38;3.33;;;;;;;;;;4892772;29;20063;-75
2022/12/03 01:11:40;;;;;;;8.80;3.00;;;;;;;;;;4893541;29;20052;-74
2022/12/03 01:14:15;;;;;;;10.40;3.38;;;;;;;;;;4892988;29;20071;-76
2022/12/03 01:16:46;;;;;;;13.80;3.33;;;;;;;;;;4892642;29;20057;-75
2022/12/03 01:19:17;;;;;;;11.00;2.90;;;;;;;;;;4893314;29;20520;-75
2022/12/03 01:21:50;;;;;;;12.15;2.80;;;;;;;;;;4892637;29;20064;-75
2022/12/03 01:24:20;;;;;;;11.15;3.50;;;;;;;;;;4892964;29;20075;-75
2022/12/03 01:26:51;;;;;;;8.63;2.88;;;;;;;;;;4893117;29;20060;-76
2022/12/03 01:29:21;;;;;;;10.38;3.08;;;;;;;;;;4892613;29;20053;-77
2022/12/03 01:34:39;;;;;;;9.15;2.88;;;;;;;;;;4892817;29;20059;-74
2022/12/03 01:37:09;;;;;;;12.02;3.10;;;;;;;;;;4892655;29;20543;-75
2022/12/03 01:39:39;;;;;;;15.95;3.53;;;;;;;;;;4892129;29;20432;-77
2022/12/03 01:42:32;;;;;;;16.35;3.72;;;;;;;;;;4892711;29;20049;-76
2022/12/03 01:45:04;;;;;;;12.73;3.30;;;;;;;;;;4892434;29;20048;-75
2022/12/03 01:47:35;;;;;;;16.27;3.63;;;;;;;;;;4892931;29;20053;-77
2022/12/03 01:50:08;;;;;;;10.20;3.00;;;;;;;;;;4892409;29;20051;-76
2022/12/03 01:52:39;;;;;;;17.02;3.28;;;;;;;;;;4892654;29;20047;-76
2022/12/03 01:55:18;;;;;;;9.05;2.70;;;;;;;;;;4892017;29;20068;-77
2022/12/03 01:57:58;;;;;;;15.77;3.92;;;;;;;;;;4892723;29;20067;-76
2022/12/03 02:00:30;;;;;;;14.68;3.67;;;;;;;;;;4891865;29;20075;-75
2022/12/03 02:03:06;;;;;;;11.48;2.92;;;;;;;;;;4892047;29;20056;-75
2022/12/03 02:05:37;;;;;;;16.77;3.95;;;;;;;;;;4892081;29;20044;-75
2022/12/03 02:08:30;;;;;;;14.32;3.47;;;;;;;;;;4892338;29;20354;-75
2022/12/03 02:11:26;;;;;;;13.95;3.70;;;;;;;;;;4892065;29;20500;-75
2022/12/03 02:14:01;;;;;;;14.80;3.20;;;;;;;;;;4891862;29;20049;-76
2022/12/03 02:16:31;;;;;;;13.98;3.90;;;;;;;;;;4892353;29;20404;-77
2022/12/03 02:19:02;;;;;;;15.15;3.28;;;;;;;;;;4891647;29;20060;-75
2022/12/03 02:21:45;;;;;;;16.95;4.00;;;;;;;;;;4891682;29;20431;-75
2022/12/03 02:24:21;;;;;;;11.23;3.15;;;;;;;;;;4891663;29;20048;-75
2022/12/03 02:26:51;;;;;;;12.60;3.30;;;;;;;;;;4891006;29;20402;-74
2022/12/03 02:29:21;;;;;;;13.85;3.45;;;;;;;;;;4891949;29;20060;-77
2022/12/03 02:31:51;;;;;;;13.63;3.83;;;;;;;;;;4891374;29;20056;-75
2022/12/03 02:34:42;;;;;;;9.43;3.92;;;;;;;;;;4892153;29;20071;-75
2022/12/03 02:37:26;;;;;;;12.27;3.85;;;;;;;;;;4891770;29;20508;-75
2022/12/03 02:40:00;;;;;;;11.60;3.80;;;;;;;;;;4900157;29;20044;-75
2022/12/03 02:42:36;;;;;;;10.98;3.22;;;;;;;;;;4897086;29;20524;-76
2022/12/03 02:45:11;;;;;;;20.95;4.07;;;;;;;;;;4891341;29;20163;-74
2022/12/03 02:48:05;;;;;;;11.43;3.30;;;;;;;;;;4891983;29;20044;-76
2022/12/03 02:50:38;;;;;;;13.80;3.30;;;;;;;;;;4892062;29;20083;-76
2022/12/03 02:53:14;;;;;;;14.40;3.53;;;;;;;;;;4891181;29;20056;-77
2022/12/03 02:55:45;;;;;;;12.82;3.90;;;;;;;;;;4891563;29;20419;-75
2022/12/03 02:58:15;;;;;;;13.00;3.65;;;;;;;;;;4890161;29;20507;-77
2022/12/03 03:00:46;;;;;;;18.75;4.65;;;;;;;;;;4891402;29;20056;-76
2022/12/03 03:03:17;;;;;;;13.63;3.63;;;;;;;;;;4891342;29;20057;-76
2022/12/03 03:05:48;;;;;;;11.57;3.63;;;;;;;;;;4890778;29;20523;-75
2022/12/03 03:08:19;;;;;;;19.05;4.30;;;;;;;;;;4891072;29;20059;-75
2022/12/03 03:10:49;;;;;;;16.38;3.67;;;;;;;;;;4891488;29;20056;-75
2022/12/03 03:13:20;;;;;;;13.98;3.85;;;;;;;;;;4891190;29;20056;-75
2022/12/03 03:15:50;;;;;;;14.07;3.75;;;;;;;;;;4891286;29;20056;-75
2022/12/03 03:18:20;;;;;;;10.82;3.13;;;;;;;;;;4890947;29;20053;-75
2022/12/03 03:20:50;;;;;;;11.48;3.70;;;;;;;;;;4891112;29;20045;-75
2022/12/03 03:23:24;;;;;;;14.90;3.80;;;;;;;;;;4890878;29;20053;-77
2022/12/03 03:26:08;;;;;;;14.02;4.03;;;;;;;;;;4890884;29;20075;-76
2022/12/03 03:28:43;;;;;;;14.60;4.07;;;;;;;;;;4891009;29;20420;-74
2022/12/03 03:31:17;;;;;;;13.75;4.00;;;;;;;;;;4890889;29;20770;-76
2022/12/03 03:33:49;;;;;;;17.17;4.18;;;;;;;;;;4891043;29;20064;-75
2022/12/03 03:36:19;;;;;;;14.70;4.07;;;;;;;;;;4891137;29;20053;-75
2022/12/03 03:38:49;;;;;;;11.05;3.83;;;;;;;;;;4891080;29;20500;-75
2022/12/03 03:41:20;;;;;;;14.43;4.13;;;;;;;;;;4891012;29;20045;-75
2022/12/03 03:43:51;;;;;;;12.48;4.05;;;;;;;;;;4891408;29;20516;-76
2022/12/03 03:46:21;;;;;;;12.00;4.07;;;;;;;;;;4891048;29;20049;-75
2022/12/03 03:48:52;;;;;;;11.10;3.97;;;;;;;;;;4891221;29;20055;-75
2022/12/03 03:51:21;;;;;;;9.73;3.72;;;;;;;;;;4890792;29;20067;-76
2022/12/03 03:53:52;;;;;;;13.38;4.55;;;;;;;;;;4890503;29;20056;-76
2022/12/03 03:56:22;;;;;;;13.07;4.30;;;;;;;;;;4889706;29;20052;-75
2022/12/03 03:58:52;;;;;;;16.98;5.00;;;;;;;;;;4891337;29;20059;-75
2022/12/03 04:01:23;;;;;;;16.02;5.15;;;;;;;;;;4891201;29;20056;-75
2022/12/03 04:03:53;;;;;;;13.60;4.50;;;;;;;;;;4892569;29;20420;-73
2022/12/03 04:06:23;;;;;;;9.10;4.05;;;;;;;;;;4893857;29;20055;-76
2022/12/03 04:08:53;;;;;;;11.23;4.03;;;;;;;;;;4894147;29;20055;-77
2022/12/03 04:14:11;;;;;;;10.70;4.75;;;;;;;;;;4894486;29;20429;-76
2022/12/03 04:16:40;;;;;;;13.30;4.80;;;;;;;;;;4893776;29;20041;-76
2022/12/03 04:19:10;;;;;;;8.82;4.00;;;;;;;;;;4894011;29;20100;-74
2022/12/03 04:24:29;;;;;;;15.00;5.15;;;;;;;;;;4894566;29;20063;-74
2022/12/03 04:29:48;;;;;;;13.32;4.43;;;;;;;;;;4893674;29;20124;-76
2022/12/03 04:37:54;;;;;;;11.57;5.25;;;;;;;;;;4893322;29;20044;-75
2022/12/03 04:43:13;;;;;;;9.05;4.53;;;;;;;;;;4893766;29;20051;-75
2022/12/03 04:45:42;;;;;;;19.10;5.20;;;;;;;;;;4893178;29;20053;-76
2022/12/03 04:48:12;;;;;;;12.95;4.57;;;;;;;;;;4893972;29;20052;-75
2022/12/03 04:50:42;;;;;;;11.82;5.13;;;;;;;;;;4893680;29;20523;-76
2022/12/03 04:53:12;;;;;;;8.15;4.10;;;;;;;;;;4893130;29;20056;-74
2022/12/03 04:55:42;;;;;;;15.73;4.93;;;;;;;;;;4892063;29;20768;-75
2022/12/03 04:58:12;;;;;;;13.80;4.80;;;;;;;;;;4893279;29;20049;-74
2022/12/03 05:00:41;;;;;;;13.00;4.93;;;;;;;;;;4892760;29;20067;-76
2022/12/03 05:03:11;;;;;;;12.85;4.85;;;;;;;;;;4893505;29;20052;-77
2022/12/03 05:05:41;;;;;;;12.70;4.78;;;;;;;;;;4893972;29;20061;-75
2022/12/03 05:08:11;;;;;;;9.73;4.93;;;;;;;;;;4898337;29;20045;-74
2022/12/03 05:10:41;;;;;;;17.90;5.60;;;;;;;;;;4901530;29;20052;-74
2022/12/03 05:13:10;;;;;;;9.18;4.15;;;;;;;;;;4897570;29;20392;-77
2022/12/03 05:15:41;;;;;;;12.10;4.68;;;;;;;;;;4892373;29;20194;-77
2022/12/03 05:18:11;;;;;;;13.75;4.95;;;;;;;;;;4893158;29;20048;-77
2022/12/03 05:20:41;;;;;;;13.00;5.57;;;;;;;;;;4893285;29;20056;-74
2022/12/03 05:23:19;;;;;;;14.65;5.03;;;;;;;;;;4893250;29;20044;-74
2022/12/03 05:25:49;;;;;;;14.00;5.13;;;;;;;;;;4893570;29;20059;-75
2022/12/03 05:28:20;;;;;;;11.93;4.80;;;;;;;;;;4892960;29;20567;-74
2022/12/03 05:30:51;;;;;;;12.48;5.18;;;;;;;;;;4892646;29;20516;-75
2022/12/03 05:33:21;;;;;;;16.55;5.72;;;;;;;;;;4892832;29;20045;-75
2022/12/03 05:35:51;;;;;;;11.73;5.22;;;;;;;;;;4892326;29;20523;-75
2022/12/03 05:38:21;;;;;;;11.13;4.78;;;;;;;;;;4892822;29;20488;-74
2022/12/03 05:40:51;;;;;;;10.15;4.93;;;;;;;;;;4892792;29;20041;-73
2022/12/03 05:43:20;;;;;;;21.02;5.03;;;;;;;;;;4892739;29;20060;-74
2022/12/03 05:45:51;;;;;;;12.85;4.88;;;;;;;;;;4892655;29;20059;-76
2022/12/03 05:48:20;;;;;;;18.98;5.43;;;;;;;;;;4892973;29;20063;-76
2022/12/03 05:50:50;;;;;;;10.85;4.97;;;;;;;;;;4892427;29;20049;-75
2022/12/03 05:53:20;;;;;;;11.55;4.90;;;;;;;;;;4892778;29;20056;-74
2022/12/03 05:55:49;;;;;;;15.68;5.40;;;;;;;;;;4892526;29;20052;-74
2022/12/03 05:58:19;;;;;;;16.63;5.65;;;;;;;;;;4892665;29;20045;-76
2022/12/03 06:00:49;;;;;;;31.40;5.32;;;;;;;;;;4892332;29;20796;-74
2022/12/03 06:03:19;;;;;;;9.68;4.82;;;;;;;;;;4891523;29;20052;-74
2022/12/03 06:05:50;;;;;;;14.05;5.15;;;;;;;;;;4892456;29;20424;-75
2022/12/03 06:08:19;;;;;;;10.63;4.38;;;;;;;;;;4892272;29;20543;-74
2022/12/03 06:10:49;;;;;;;22.58;5.47;;;;;;;;;;4891640;29;20064;-74
2022/12/03 06:13:19;;;;;;;14.45;6.10;;;;;;;;;;4892394;29;20052;-75
2022/12/03 06:15:49;;;;;;;11.88;5.47;;;;;;;;;;4890881;29;20389;-74
2022/12/03 06:18:19;;;;;;;11.63;4.90;;;;;;;;;;4892457;29;20045;-73
2022/12/03 06:20:49;;;;;;;14.98;6.03;;;;;;;;;;4892214;29;20056;-74
2022/12/03 06:23:18;;;;;;;12.82;5.30;;;;;;;;;;4891987;29;20096;-75
2022/12/03 06:25:49;;;;;;;12.65;5.07;;;;;;;;;;4891849;29;20053;-75
2022/12/03 06:28:19;;;;;;;14.07;5.32;;;;;;;;;;4891633;29;20053;-76
2022/12/03 06:30:49;;;;;;;15.23;6.20;;;;;;;;;;4891296;29;20424;-75
2022/12/03 06:33:19;;;;;;;11.95;5.68;;;;;;;;;;4891659;29;20433;-75
2022/12/03 06:35:49;;;;;;;11.90;5.70;;;;;;;;;;4892001;29;20493;-76
2022/12/03 06:38:19;;;;;;;11.27;5.03;;;;;;;;;;4892128;29;20052;-75
2022/12/03 06:40:49;;;;;;;12.65;5.22;;;;;;;;;;4891237;29;20071;-75
2022/12/03 06:43:19;;;;;;;15.32;5.75;;;;;;;;;;4891428;29;20052;-75
2022/12/03 06:45:48;;;;;;;13.70;5.65;;;;;;;;;;4890420;29;20512;-75
2022/12/03 06:48:18;;;;;;;15.73;5.93;;;;;;;;;;4889889;29;20067;-74
2022/12/03 06:50:48;;;;;;;11.20;5.22;;;;;;;;;;4891224;29;20060;-74
2022/12/03 06:53:18;;;;;;;16.63;6.63;;;;;;;;;;4891320;29;20519;-74
2022/12/03 06:55:47;;;;;;;17.95;5.75;;;;;;;;;;4891799;29;20583;-75
2022/12/03 06:58:18;;;;;;;14.57;5.55;;;;;;;;;;4891353;29;20064;-76
2022/12/03 07:00:49;;;;;;;11.98;5.60;;;;;;;;;;4891330;29;20049;-75
2022/12/03 07:03:18;;;;;;;15.98;5.97;;;;;;;;;;4891319;29;20052;-75
2022/12/03 07:05:48;;;;;;;14.43;5.85;;;;;;;;;;4891285;29;20051;-75
2022/12/03 07:08:18;;;;;;;20.45;6.20;;;;;;;;;;4891316;29;20052;-75
2022/12/03 07:10:48;;;;;;;19.80;6.07;;;;;;;;;;4891491;29;20056;-75
2022/12/03 07:13:17;;;;;;;8.57;5.03;;;;;;;;;;4891713;29;20052;-75
2022/12/03 07:15:47;;;;;;;15.50;6.00;;;;;;;;;;4889714;29;20048;-75
2022/12/03 07:18:18;;;;;;;15.90;7.00;;;;;;;;;;4891304;29;20080;-74
2022/12/03 07:20:47;;;;;;;14.88;7.20;;;;;;;;;;4891280;29;20493;-75
2022/12/03 07:23:17;;;;;;;15.02;6.53;;;;;;;;;;4890929;29;20118;-74
2022/12/03 07:25:47;;;;;;;14.30;7.10;;;;;;;;;;4890852;29;20044;-75
2022/12/03 07:28:17;;;;;;;16.23;6.40;;;;;;;;;;4874040;29;20065;-74
2022/12/03 07:30:46;;;;;;;20.92;7.43;;;;;;;;;;4891722;29;20061;-75
2022/12/03 07:33:16;;;;;;;16.70;6.68;;;;;;;;;;4891290;29;20049;-74
2022/12/03 07:35:46;;;;;;;11.82;6.10;;;;;;;;;;4890749;29;20064;-75
2022/12/03 07:38:16;;;;;;;13.50;6.18;;;;;;;;;;4893291;29;20049;-75
2022/12/03 07:40:48;;;;;;;16.85;7.07;;;;;;;;;;4894682;29;20783;-74
2022/12/03 07:43:19;;;;;;;13.95;6.30;;;;;;;;;;4894739;29;20060;-75
2022/12/03 07:45:48;;;;;;;18.17;6.70;;;;;;;;;;4893694;29;20067;-75
2022/12/03 07:48:19;;;;;;;14.55;6.35;;;;;;;;;;4895344;29;20050;-75
2022/12/03 07:50:49;;;;;;;15.30;6.00;;;;;;;;;;4894560;29;20067;-75
2022/12/03 07:53:18;;;;;;;13.88;5.88;;;;;;;;;;4894702;29;20401;-75
2022/12/03 07:55:48;;;;;;;12.52;6.22;;;;;;;;;;4894504;29;20060;-74
2022/12/03 07:58:18;;;;;;;18.88;7.38;;;;;;;;;;4894784;29;20408;-75
2022/12/03 08:00:47;;;;;;;16.98;6.95;;;;;;;;;;4894376;29;20049;-75
2022/12/03 08:03:18;;;;;;;13.52;6.32;;;;;;;;;;4895227;29;20060;-76
2022/12/03 08:05:48;;;;;;;12.38;6.80;;;;;;;;;;4894676;29;20051;-75
2022/12/03 08:08:18;;;;;;;13.10;6.07;;;;;;;;;;4894412;29;20052;-75
2022/12/03 08:10:48;;;;;;;11.35;6.18;;;;;;;;;;4894458;29;20057;-75
2022/12/03 08:13:19;;;;;;;17.20;7.13;;;;;;;;;;4894268;29;20068;-75
2022/12/03 08:15:48;;;;;;;18.92;6.97;;;;;;;;;;4894030;29;20052;-75
2022/12/03 08:18:20;;;;;;;21.52;8.55;;;;;;;;;;4894065;29;20048;-75
2022/12/03 08:20:50;;;;;;;16.25;8.27;;;;;;;;;;4894292;29;20053;-76
2022/12/03 08:23:23;;;;;;;25.42;8.30;;;;;;;;;;4893039;29;20520;-76
2022/12/03 08:25:53;;;;;;;23.13;9.48;;;;;;;;;;4894674;29;20460;-75
2022/12/03 08:28:26;;;;;;;21.00;8.57;;;;;;;;;;4893591;29;20044;-75
2022/12/03 08:31:17;;;;;;;20.65;8.40;;;;;;;;;;4893630;29;20060;-75
2022/12/03 08:33:50;;;;;;;16.83;8.63;;;;;;;;;;4893891;29;20068;-75
2022/12/03 08:36:30;;;;;;;23.77;9.55;;;;;;;;;;4895805;29;20057;-75
2022/12/03 08:39:04;;;;;;;19.05;8.85;;;;;;;;;;4895294;29;20044;-74
2022/12/03 08:44:28;;;;;;;19.00;9.15;;;;;;;;;;4893649;29;20513;-74
2022/12/03 08:47:20;;;;;;;17.98;8.48;;;;;;;;;;4893433;29;20045;-75
2022/12/03 08:49:57;;;;;;;17.42;7.57;;;;;;;;;;4892012;29;20052;-75
2022/12/03 08:52:31;;;;;;;11.45;7.30;;;;;;;;;;4893741;29;20048;-75
2022/12/03 08:55:28;;;;;;;17.40;7.65;;;;;;;;;;4893148;29;20048;-75
2022/12/03 08:57:58;;;;;;;13.60;6.75;;;;;;;;;;4893444;29;20051;-74
2022/12/03 09:00:28;;;;;;;14.48;6.85;;;;;;;;;;4893955;29;20053;-75
2022/12/03 09:03:00;;;;;;;17.38;6.53;;;;;;;;;;4893949;29;20060;-76
2022/12/03 09:05:32;;;;;;;11.90;7.20;;;;;;;;;;4893316;29;20049;-75
2022/12/03 09:08:02;;;;;;;17.00;7.75;;;;;;;;;;4893242;29;20045;-75
2022/12/03 09:10:32;;;;;;;12.48;6.78;;;;;;;;;;4892868;29;20052;-75
2022/12/03 09:13:01;;;;;;;13.27;7.55;;;;;;;;;;4893168;29;20048;-75
2022/12/03 09:15:32;;;;;;;18.70;7.22;;;;;;;;;;4893025;29;20544;-76
2022/12/03 09:18:03;;;;;;;14.43;7.55;;;;;;;;;;4893809;29;20052;-75
2022/12/03 09:20:33;;;;;;;17.88;8.50;;;;;;;;;;4893485;29;20416;-76
2022/12/03 09:23:03;;;;;;;17.67;8.68;;;;;;;;;;4890994;29;20599;-77
2022/12/03 09:25:32;;;;;;;14.88;8.77;;;;;;;;;;4892932;29;20059;-75
2022/12/03 09:28:02;;;;;;;19.58;8.60;;;;;;;;;;4893259;29;20055;-75
2022/12/03 09:30:32;;;;;;;17.77;9.25;;;;;;;;;;4892577;29;20044;-74
2022/12/03 09:33:01;;;;;;;16.05;8.00;;;;;;;;;;4892718;29;20053;-74
2022/12/03 09:35:33;;;;;;;22.73;8.20;;;;;;;;;;4892518;29;20060;-75
2022/12/03 09:38:03;;;;;;;17.25;8.50;;;;;;;;;;4892965;29;20053;-74
2022/12/03 09:40:33;;;;;;;17.42;9.07;;;;;;;;;;4893009;29;20052;-75
2022/12/03 09:43:04;;;;;;;15.15;7.95;;;;;;;;;;4892299;29;20044;-74
2022/12/03 09:45:35;;;;;;;15.13;9.10;;;;;;;;;;4891228;29;20060;-75
2022/12/03 09:48:04;;;;;;;16.50;8.68;;;;;;;;;;4892249;29;20059;-75
2022/12/03 09:50:38;;;;;;;15.52;8.43;;;;;;;;;;4891513;29;20408;-77
2022/12/03 09:53:13;;;;;;;14.95;9.02;;;;;;;;;;4892814;29;20049;-75
2022/12/03 09:55:45;;;;;;;19.88;8.98;;;;;;;;;;4878669;29;20076;-73
2022/12/03 09:58:17;;;;;;;16.30;8.23;;;;;;;;;;4873824;29;20045;-74
2022/12/03 10:00:51;;;;;;;15.88;8.57;;;;;;;;;;4872840;29;20879;-74
2022/12/03 10:03:26;;;;;;;18.45;8.52;;;;;;;;;;4874019;29;20536;-74
2022/12/03 10:05:57;;;;;;;16.92;8.52;;;;;;;;;;4873705;29;20045;-72
2022/12/03 10:08:31;;;;;;;14.45;7.47;;;;;;;;;;4873798;29;20048;-73
2022/12/03 10:11:01;;;;;;;16.95;7.85;;;;;;;;;;4873611;29;20111;-74
2022/12/03 10:13:33;;;;;;;16.52;9.07;;;;;;;;;;4872154;29;20057;-72
2022/12/03 10:16:04;;;;;;;19.17;7.75;;;;;;;;;;4873284;29;20049;-73
2022/12/03 10:18:34;;;;;;;14.65;8.13;;;;;;;;;;4873467;29;20052;-75
2022/12/03 10:21:17;;;;;;;;;;;;;;;;;;4874173;29;20049;-73
2022/12/03 10:23:47;;;;;;;16.88;7.82;;;;;;;;;;4873038;29;20252;-72
2022/12/03 10:26:39;;;;;;;16.05;7.25;;;;;;;;;;4873248;29;20049;-73
2022/12/03 10:29:13;;;;;;;15.30;7.90;;;;;;;;;;4873091;29;20045;-73
2022/12/03 10:31:44;;;;;;;14.48;7.78;;;;;;;;;;4873128;29;20048;-73
2022/12/03 10:34:33;;;;;;;16.13;7.90;;;;;;;;;;4872758;29;20068;-73
2022/12/03 10:37:19;;;;;;;15.18;7.35;;;;;;;;;;4873110;29;20049;-74
2022/12/03 10:40:08;;;;;;;18.20;7.57;;;;;;;;;;4872322;29;20539;-73
2022/12/03 10:42:40;;;;;;;18.27;9.32;;;;;;;;;;4871960;29;20053;-74
2022/12/03 10:45:19;;;;;;;14.50;7.38;;;;;;;;;;4873083;29;20061;-75
2022/12/03 10:48:24;;;;;;;15.75;7.22;;;;;;;;;;4873458;29;20452;-73
2022/12/03 10:51:05;;;;;;;17.40;7.13;;;;;;;;;;4873071;29;20072;-75
2022/12/03 10:53:39;;;;;;;26.00;8.25;;;;;;;;;;4872674;29;20064;-74
2022/12/03 10:56:18;;;;;;;15.57;7.13;;;;;;;;;;4872714;29;20516;-76
2022/12/03 10:58:48;;;;;;;14.48;7.38;;;;;;;;;;4872543;29;20053;-74
2022/12/03 11:01:22;;;;;;;12.27;6.18;;;;;;;;;;4873515;29;20045;-75
2022/12/03 11:03:54;;;;;;;12.57;6.72;;;;;;;;;;4873111;29;20041;-76
2022/12/03 11:06:24;;;;;;;13.40;6.22;;;;;;;;;;4873180;29;20072;-75
2022/12/03 11:08:55;;;;;;;14.98;7.43;;;;;;;;;;4872616;29;20061;-75
2022/12/03 11:11:33;;;;;;;12.90;7.20;;;;;;;;;;4873840;29;20053;-78
2022/12/03 11:14:04;;;;;;;15.13;5.95;;;;;;;;;;4875101;29;20048;-75
2022/12/03 11:16:40;;;;;;;19.48;6.00;;;;;;;;;;4875466;29;20088;-75
2022/12/03 11:19:17;;;;;;;10.95;6.47;;;;;;;;;;4876546;29;20045;-76
2022/12/03 11:22:05;;;;;;;14.65;6.78;;;;;;;;;;4876680;29;20056;-75
2022/12/03 11:24:37;;;;;;;12.50;6.05;;;;;;;;;;4876265;29;20048;-76
2022/12/03 11:27:17;;;;;;;13.65;6.72;;;;;;;;;;4876577;29;20056;-75
2022/12/03 11:29:52;;;;;;;11.55;6.13;;;;;;;;;;4876185;29;20052;-75
2022/12/03 11:32:38;;;;;;;13.50;6.60;;;;;;;;;;4874663;29;20523;-77
2022/12/03 11:35:25;;;;;;;13.02;5.82;;;;;;;;;;4876237;29;20049;-75
2022/12/03 11:38:14;;;;;;;12.93;6.85;;;;;;;;;;4876563;29;20512;-75
2022/12/03 11:41:09;;;;;;;15.60;6.32;;;;;;;;;;4876094;29;20049;-77
2022/12/03 11:43:55;;;;;;;11.55;5.95;;;;;;;;;;4876194;29;20864;-75
2022/12/03 11:46:37;;;;;;;14.13;7.13;;;;;;;;;;4876346;29;20045;-77
2022/12/03 11:49:34;;;;;;;11.68;6.63;;;;;;;;;;4875003;29;20056;-75
2022/12/03 11:52:22;;;;;;;11.45;5.70;;;;;;;;;;4875772;29;20053;-74
2022/12/03 11:55:01;;;;;;;13.73;6.88;;;;;;;;;;4875863;29;20045;-75
2022/12/03 11:57:35;;;;;;;11.77;6.35;;;;;;;;;;4875962;29;20045;-75
2022/12/03 12:00:07;;;;;;;11.05;6.30;;;;;;;;;;4875981;29;20056;-75
2022/12/03 12:02:42;;;;;;;12.65;6.78;;;;;;;;;;4875600;29;20061;-75
2022/12/03 12:05:21;;;;;;;10.50;6.63;;;;;;;;;;4875863;29;20531;-75
2022/12/03 12:07:53;;;;;;;13.60;6.43;;;;;;;;;;4875822;29;20048;-75
2022/12/03 12:10:48;;;;;;;8.95;6.80;;;;;;;;;;4875648;29;20064;-76
2022/12/03 12:13:30;;;;;;;14.00;7.05;;;;;;;;;;4876331;29;20759;-75
2022/12/03 12:16:03;;;;;;;12.65;7.03;;;;;;;;;;4875429;29;20508;-75
2022/12/03 12:18:44;;;;;;;14.70;6.80;;;;;;;;;;4875424;29;20045;-77
2022/12/03 12:21:46;;;;;;;12.05;6.88;;;;;;;;;;4874477;29;20069;-75
2022/12/03 12:24:46;;;;;;;14.63;7.10;;;;;;;;;;4874397;29;20048;-75
2022/12/03 12:27:30;;;;;;;12.32;7.15;;;;;;;;;;4875332;29;20491;-76
2022/12/03 12:30:17;;;;;;;12.77;7.22;;;;;;;;;;4875629;29;20524;-75
2022/12/03 12:33:01;;;;;;;15.52;6.80;;;;;;;;;;4875094;29;20045;-75
2022/12/03 12:35:31;;;;;;;14.13;7.35;;;;;;;;;;4874874;29;20547;-74
2022/12/03 12:38:10;;;;;;;10.98;7.00;;;;;;;;;;4874914;29;20526;-74
2022/12/03 12:40:43;;;;;;;12.25;6.85;;;;;;;;;;4875175;29;20505;-74
2022/12/03 12:43:23;;;;;;;8.95;6.50;;;;;;;;;;4875297;29;20060;-75
2022/12/03 12:45:56;;;;;;;9.70;6.57;;;;;;;;;;4875180;29;20049;-76
2022/12/03 12:48:33;;;;;;;11.25;6.25;;;;;;;;;;4875644;29;20041;-76
2022/12/03 12:51:10;;;;;;;10.98;6.40;;;;;;;;;;4875186;29;20053;-77
2022/12/03 12:53:41;;;;;;;8.02;5.80;;;;;;;;;;4874999;29;20065;-76
2022/12/03 12:56:23;;;;;;;8.70;5.93;;;;;;;;;;4874344;29;20053;-77
2022/12/03 12:58:55;;;;;;;6.93;5.53;;;;;;;;;;4874845;29;20408;-76
2022/12/03 13:01:29;;;;;;;7.38;5.35;;;;;;;;;;4874616;29;20052;-80
2022/12/03 13:03:59;;;;;;;7.85;4.90;;;;;;;;;;4874453;29;20408;-77
2022/12/03 13:06:30;;;;;;;8.75;5.13;;;;;;;;;;4874830;29;20041;-77
2022/12/03 13:09:01;;;;;;;9.18;5.40;;;;;;;;;;4874714;29;20144;-81
2022/12/03 13:11:56;;;;;;;7.65;4.68;;;;;;;;;;4874401;29;20076;-78
2022/12/03 13:14:31;;;;;;;9.13;5.25;;;;;;;;;;4868779;29;20538;-78
2022/12/03 13:17:17;;;;;;;6.97;4.80;;;;;;;;;;4873260;29;20064;-78
2022/12/03 13:19:47;;;;;;;9.30;5.15;;;;;;;;;;4874041;29;20060;-77
2022/12/03 13:22:31;;;;;;;6.25;4.95;;;;;;;;;;4874004;29;20516;-76
2022/12/03 13:25:22;;;;;;;7.35;4.60;;;;;;;;;;4874109;29;20057;-76
2022/12/03 13:28:13;;;;;;;8.63;5.07;;;;;;;;;;4873624;29;20060;-79
2022/12/03 13:30:43;;;;;;;7.50;5.15;;;;;;;;;;4873643;29;20061;-76
2022/12/03 13:33:22;;;;;;;7.93;4.72;;;;;;;;;;4873569;29;20500;-77
2022/12/03 13:35:55;;;;;;;7.85;5.50;;;;;;;;;;4872690;29;20056;-78
2022/12/03 13:38:27;;;;;;;11.02;6.13;;;;;;;;;;4873795;29;20059;-75
2022/12/03 13:41:00;;;;;;;9.52;5.15;;;;;;;;;;4873944;29;20041;-76
2022/12/03 13:43:32;;;;;;;9.82;6.13;;;;;;;;;;4873708;29;20041;-76
2022/12/03 13:46:02;;;;;;;7.55;5.45;;;;;;;;;;4872041;29;20068;-80
2022/12/03 13:48:35;;;;;;;8.88;5.60;;;;;;;;;;4873909;29;20420;-76
2022/12/03 13:51:32;;;;;;;7.78;5.68;;;;;;;;;;4872695;29;20060;-76
2022/12/03 13:54:02;;;;;;;10.20;5.53;;;;;;;;;;4871797;29;20508;-76
2022/12/03 13:56:32;;;;;;;6.68;5.05;;;;;;;;;;4873861;29;20041;-76
2022/12/03 13:59:03;;;;;;;7.88;5.28;;;;;;;;;;4873689;29;20489;-76
2022/12/03 14:01:34;;;;;;;10.15;5.78;;;;;;;;;;4873774;29;20592;-76
2022/12/03 14:04:05;;;;;;;7.30;5.55;;;;;;;;;;4873284;29;20405;-76
2022/12/03 14:06:35;;;;;;;7.85;5.53;;;;;;;;;;4873602;29;20049;-79
2022/12/03 14:09:05;;;;;;;8.98;5.30;;;;;;;;;;4873606;29;20516;-75
2022/12/03 14:14:23;;;;;;;8.98;5.25;;;;;;;;;;4873751;29;20536;-77
2022/12/03 14:16:54;;;;;;;8.95;5.90;;;;;;;;;;4873293;29;20056;-78
2022/12/03 14:19:28;;;;;;;9.45;5.40;;;;;;;;;;4872025;29;20068;-75
2022/12/03 14:21:59;;;;;;;6.00;4.95;;;;;;;;;;4873461;29;20049;-76
2022/12/03 14:24:29;;;;;;;8.40;5.13;;;;;;;;;;4872786;29;20095;-75
2022/12/03 14:26:59;;;;;;;10.52;6.10;;;;;;;;;;4873473;29;20041;-76
2022/12/03 14:29:31;;;;;;;7.63;5.53;;;;;;;;;;4871504;29;20064;-78
2022/12/03 14:32:02;;;;;;;7.93;5.25;;;;;;;;;;4872829;29;20051;-74
2022/12/03 14:34:32;;;;;;;6.90;5.35;;;;;;;;;;4872219;29;20060;-74
2022/12/03 14:37:02;;;;;;;7.78;4.88;;;;;;;;;;4871432;29;20056;-75
2022/12/03 14:39:32;;;;;;;10.20;5.03;;;;;;;;;;4871363;29;20069;-79
2022/12/03 14:42:15;;;;;;;7.22;4.60;;;;;;;;;;4872908;29;20065;-79
2022/12/03 14:44:47;;;;;;;6.35;4.38;;;;;;;;;;4872871;29;20413;-74
2022/12/03 14:47:21;;;;;;;7.45;4.72;;;;;;;;;;4872554;29;20053;-76
2022/12/03 14:49:51;;;;;;;8.15;4.88;;;;;;;;;;4872828;29;20037;-76
2022/12/03 14:52:22;;;;;;;10.43;4.65;;;;;;;;;;4873021;29;20056;-75
2022/12/03 14:54:52;;;;;;;7.38;4.45;;;;;;;;;;4872754;29;20053;-76
2022/12/03 14:57:22;;;;;;;8.02;5.30;;;;;;;;;;4873102;29;20501;-76
2022/12/03 14:59:52;;;;;;;8.52;4.38;;;;;;;;;;4872697;29;20600;-75
2022/12/03 15:02:22;;;;;;;7.10;4.32;;;;;;;;;;4872442;29;20057;-75
2022/12/03 15:04:52;;;;;;;5.35;4.70;;;;;;;;;;4873088;29;20518;-77
2022/12/03 15:07:22;;;;;;;6.40;4.18;;;;;;;;;;4873062;29;20053;-75
2022/12/03 15:09:52;;;;;;;8.27;4.68;;;;;;;;;;4872481;29;20076;-75
2022/12/03 15:12:22;;;;;;;10.50;5.07;;;;;;;;;;4873173;29;20512;-76
2022/12/03 15:14:52;;;;;;;5.72;4.20;;;;;;;;;;4872544;29;20053;-78
2022/12/03 15:17:22;;;;;;;8.00;4.55;;;;;;;;;;4872679;29;20076;-76
2022/12/03 15:19:59;;;;;;;10.18;4.43;;;;;;;;;;4872222;29;20590;-78
2022/12/03 15:22:29;;;;;;;7.63;4.47;;;;;;;;;;4873646;29;20056;-73
2022/12/03 15:25:01;;;;;;;6.65;4.53;;;;;;;;;;4872375;29;20060;-76
2022/12/03 15:27:31;;;;;;;5.78;3.90;;;;;;;;;;4872283;29;20045;-76
2022/12/03 15:30:01;;;;;;;7.75;4.00;;;;;;;;;;4871940;29;20064;-82
2022/12/03 15:32:31;;;;;;;4.75;3.85;;;;;;;;;;4870973;29;20056;-76
2022/12/03 15:35:01;;;;;;;8.63;3.85;;;;;;;;;;4872701;29;20045;-76